Time,TemperatureF,DewpointF,PressureIn,WindDirection,WindDirectionDegrees,WindSpeedMPH,WindSpeedGustMPH,Humidity,HourlyPrecipIn,Conditions,Clouds,dailyrainin,SoftwareType,DateUTC
2013-01-10 00:02:00,35.0,28.0,-100.00,South,175,6.0,9.0,77,-99.99,,,-99.99,,2013-01-10 06:02:00,
2013-01-10 00:12:00,34.0,28.0,-100.00,SSE,165,6.0,7.0,78,-99.99,,,-99.99,,2013-01-10 06:12:00,
2013-01-10 00:22:00,31.0,25.0,-100.00,SE,140,5.0,6.0,80,-99.99,,,-99.99,,2013-01-10 06:22:00,
2013-01-10 00:32:00,30.0,25.0,-100.00,SE,135,5.0,6.0,82,-99.99,,,-99.99,,2013-01-10 06:32:00,
2013-01-10 00:42:00,30.0,25.0,-100.00,SE,135,5.0,6.0,82,-99.99,,,-99.99,,2013-01-10 06:42:00,
2013-01-10 00:52:00,30.0,26.0,-100.00,SE,135,5.0,6.0,85,-99.99,,,-99.99,,2013-01-10 06:52:00,
2013-01-10 01:01:00,31.0,28.0,-100.00,East,80,10.0,11.0,90,-99.99,,,-99.99,,2013-01-10 07:01:00,
2013-01-10 01:02:00,30.0,26.0,-100.00,SE,135,5.0,6.0,85,-99.99,,,-99.99,,2013-01-10 07:02:00,
2013-01-10 01:12:00,30.0,27.0,-100.00,SSE,150,6.0,7.0,87,-99.99,,,-99.99,,2013-01-10 07:12:00,
2013-01-10 01:22:00,29.0,26.0,-100.00,SE,130,6.0,7.0,88,-99.99,,,-99.99,,2013-01-10 07:22:00,
2013-01-10 01:32:00,29.0,26.0,-100.00,SE,130,6.0,7.0,88,-99.99,,,-99.99,,2013-01-10 07:32:00,
2013-01-10 01:42:00,31.0,28.0,-100.00,East,80,10.0,11.0,90,-99.99,,,-99.99,,2013-01-10 07:42:00,
2013-01-10 01:52:00,31.0,28.0,-100.00,East,80,10.0,11.0,90,-99.99,,,-99.99,,2013-01-10 07:52:00,
2013-01-10 02:12:00,30.0,28.0,-100.00,ESE,115,6.0,6.0,90,-99.99,,,-99.99,,2013-01-10 08:12:00,
2013-01-10 02:22:00,30.0,28.0,-100.00,ESE,120,7.0,7.0,90,-99.99,,,-99.99,,2013-01-10 08:22:00,
2013-01-10 02:32:00,30.0,28.0,-100.00,ESE,120,7.0,7.0,90,-99.99,,,-99.99,,2013-01-10 08:32:00,
2013-01-10 02:42:00,30.0,28.0,-100.00,East,100,7.0,11.0,90,-99.99,,,-99.99,,2013-01-10 08:42:00,
2013-01-10 02:53:00,30.0,27.0,-100.00,SE,125,9.0,10.0,90,-99.99,,,-99.99,,2013-01-10 08:53:00,
2013-01-10 03:02:00,30.0,27.0,-100.00,SE,125,9.0,10.0,90,-99.99,,,-99.99,,2013-01-10 09:02:00,
2013-01-10 03:12:00,31.0,28.0,-100.00,SE,140,6.0,9.0,88,-99.99,,,-99.99,,2013-01-10 09:12:00,
2013-01-10 03:22:00,31.0,27.0,-100.00,SE,135,7.0,9.0,85,-99.99,,,-99.99,,2013-01-10 09:22:00,
2013-01-10 03:32:00,31.0,27.0,-100.00,SE,135,7.0,9.0,85,-99.99,,,-99.99,,2013-01-10 09:32:00,
2013-01-10 03:42:00,30.0,26.0,-100.00,SE,140,7.0,9.0,85,-99.99,,,-99.99,,2013-01-10 09:42:00,
2013-01-10 03:52:00,30.0,26.0,-100.00,SE,135,8.0,10.0,85,-99.99,,,-99.99,,2013-01-10 09:52:00,
2013-01-10 04:03:00,30.0,26.0,-100.00,SE,135,8.0,10.0,85,-99.99,,,-99.99,,2013-01-10 10:03:00,
2013-01-10 04:12:00,29.0,26.0,-100.00,SE,130,9.0,10.0,86,-99.99,,,-99.99,,2013-01-10 10:12:00,
2013-01-10 04:22:00,28.0,24.0,-100.00,SE,130,8.0,11.0,87,-99.99,,,-99.99,,2013-01-10 10:22:00,
2013-01-10 04:32:00,28.0,24.0,-100.00,SE,130,8.0,11.0,87,-99.99,,,-99.99,,2013-01-10 10:32:00,
2013-01-10 04:42:00,27.0,24.0,-100.00,SE,130,7.0,9.0,88,-99.99,,,-99.99,,2013-01-10 10:42:00,
2013-01-10 04:53:00,28.0,25.0,-100.00,SE,135,7.0,10.0,89,-99.99,,,-99.99,,2013-01-10 10:53:00,
2013-01-10 05:02:00,28.0,25.0,-100.00,SE,135,7.0,10.0,89,-99.99,,,-99.99,,2013-01-10 11:02:00,
2013-01-10 05:12:00,29.0,26.0,-100.00,SE,140,7.0,10.0,89,-99.99,,,-99.99,,2013-01-10 11:12:00,
2013-01-10 05:22:00,29.0,26.0,-100.00,ESE,120,9.0,9.0,88,-99.99,,,-99.99,,2013-01-10 11:22:00,
2013-01-10 05:32:00,29.0,26.0,-100.00,ESE,120,9.0,9.0,88,-99.99,,,-99.99,,2013-01-10 11:32:00,
2013-01-10 05:42:00,28.0,25.0,-100.00,ESE,115,9.0,9.0,88,-99.99,,,-99.99,,2013-01-10 11:42:00,
2013-01-10 05:53:00,29.0,26.0,-100.00,ESE,115,10.0,11.0,89,-99.99,,,-99.99,,2013-01-10 11:53:00,
2013-01-10 06:03:00,29.0,26.0,-100.00,ESE,115,10.0,11.0,89,-99.99,,,-99.99,,2013-01-10 12:03:00,
2013-01-10 06:12:00,29.0,27.0,-100.00,ESE,120,9.0,11.0,90,-99.99,,,-99.99,,2013-01-10 12:12:00,
2013-01-10 06:22:00,30.0,27.0,-100.00,ESE,115,10.0,11.0,90,-99.99,,,-99.99,,2013-01-10 12:22:00,
2013-01-10 06:33:00,30.0,27.0,-100.00,ESE,115,10.0,11.0,90,-99.99,,,-99.99,,2013-01-10 12:33:00,
2013-01-10 06:42:00,30.0,27.0,-100.00,ESE,115,10.0,11.0,90,-99.99,,,-99.99,,2013-01-10 12:42:00,
2013-01-10 06:53:00,30.0,27.0,-100.00,ESE,110,11.0,12.0,89,-99.99,,,-99.99,,2013-01-10 12:53:00,
2013-01-10 07:02:00,30.0,27.0,-100.00,ESE,110,11.0,12.0,89,-99.99,,,-99.99,,2013-01-10 13:02:00,
2013-01-10 07:12:00,30.0,27.0,-100.00,ESE,120,11.0,13.0,89,-99.99,,,-99.99,,2013-01-10 13:12:00,
2013-01-10 07:22:00,30.0,27.0,-100.00,ESE,110,12.0,14.0,89,-99.99,,,-99.99,,2013-01-10 13:22:00,
2013-01-10 07:32:00,30.0,27.0,-100.00,ESE,110,12.0,14.0,89,-99.99,,,-99.99,,2013-01-10 13:32:00,
2013-01-10 07:42:00,30.0,27.0,-100.00,ESE,110,12.0,14.0,88,-99.99,,,-99.99,,2013-01-10 13:42:00,
2013-01-10 07:53:00,30.0,27.0,-100.00,ESE,110,14.0,16.0,88,-99.99,,,-99.99,,2013-01-10 13:53:00,
2013-01-10 08:02:00,30.0,27.0,-100.00,ESE,110,14.0,16.0,88,-99.99,,,-99.99,,2013-01-10 14:02:00,
2013-01-10 08:12:00,30.0,26.0,-100.00,ESE,115,13.0,16.0,86,-99.99,,,-99.99,,2013-01-10 14:12:00,
2013-01-10 08:22:00,30.0,26.0,-100.00,ESE,115,14.0,16.0,85,-99.99,,,-99.99,,2013-01-10 14:22:00,
2013-01-10 08:33:00,30.0,26.0,-100.00,ESE,115,14.0,16.0,85,-99.99,,,-99.99,,2013-01-10 14:33:00,
2013-01-10 08:43:00,31.0,27.0,-100.00,ESE,115,14.0,16.0,84,-99.99,,,-99.99,,2013-01-10 14:43:00,
2013-01-10 08:53:00,32.0,27.0,-100.00,ESE,110,14.0,18.0,81,-99.99,,,-99.99,,2013-01-10 14:53:00,
2013-01-10 09:03:00,32.0,27.0,-100.00,ESE,110,14.0,18.0,81,-99.99,,,-99.99,,2013-01-10 15:03:00,
2013-01-10 09:12:00,33.0,27.0,-100.00,ESE,115,17.0,20.0,79,-99.99,,,-99.99,,2013-01-10 15:12:00,
2013-01-10 09:23:00,34.0,27.0,-100.00,ESE,110,15.0,19.0,76,-99.99,,,-99.99,,2013-01-10 15:23:00,
2013-01-10 09:33:00,34.0,27.0,-100.00,ESE,110,15.0,19.0,76,-99.99,,,-99.99,,2013-01-10 15:33:00,
2013-01-10 09:43:00,34.0,27.0,-100.00,ESE,115,16.0,19.0,74,-99.99,,,-99.99,,2013-01-10 15:43:00,
2013-01-10 09:53:00,35.0,26.0,-100.00,ESE,120,16.0,20.0,72,-99.99,,,-99.99,,2013-01-10 15:53:00,
2013-01-10 10:02:00,35.0,26.0,-100.00,ESE,120,16.0,20.0,72,-99.99,,,-99.99,,2013-01-10 16:02:00,
2013-01-10 10:13:00,35.0,26.0,-100.00,ESE,120,19.0,21.0,71,-99.99,,,-99.99,,2013-01-10 16:13:00,
2013-01-10 10:23:00,35.0,26.0,-100.00,ESE,120,19.0,21.0,71,-99.99,,,-99.99,,2013-01-10 16:23:00,
2013-01-10 10:33:00,35.0,26.0,-100.00,ESE,120,19.0,21.0,71,-99.99,,,-99.99,,2013-01-10 16:33:00,
2013-01-10 10:43:00,35.0,26.0,-100.00,ESE,115,19.0,22.0,70,-99.99,,,-99.99,,2013-01-10 16:43:00,
2013-01-10 10:53:00,36.0,27.0,-100.00,ESE,115,17.0,21.0,70,-99.99,,,-99.99,,2013-01-10 16:53:00,
2013-01-10 11:03:00,36.0,27.0,-100.00,ESE,115,17.0,21.0,70,-99.99,,,-99.99,,2013-01-10 17:03:00,
2013-01-10 11:12:00,36.0,27.0,-100.00,ESE,115,16.0,23.0,67,-99.99,,,-99.99,,2013-01-10 17:12:00,
2013-01-10 11:22:00,37.0,27.0,-100.00,ESE,110,16.0,20.0,67,-99.99,,,-99.99,,2013-01-10 17:22:00,
2013-01-10 11:33:00,37.0,27.0,-100.00,ESE,110,16.0,20.0,67,-99.99,,,-99.99,,2013-01-10 17:33:00,
2013-01-10 11:42:00,38.0,27.0,-100.00,ESE,115,18.0,21.0,64,-99.99,,,-99.99,,2013-01-10 17:42:00,
2013-01-10 11:53:00,38.0,26.0,-100.00,ESE,115,19.0,23.0,62,-99.99,,,-99.99,,2013-01-10 17:53:00,
2013-01-10 12:01:00,39.0,27.0,-100.00,ESE,115,20.0,24.0,63,-99.99,,,-99.99,,2013-01-10 18:01:00,
2013-01-10 12:03:00,38.0,26.0,-100.00,ESE,115,19.0,23.0,62,-99.99,,,-99.99,,2013-01-10 18:03:00,
2013-01-10 12:12:00,38.0,27.0,-100.00,ESE,110,17.0,24.0,63,-99.99,,,-99.99,,2013-01-10 18:12:00,
2013-01-10 12:23:00,39.0,27.0,-100.00,ESE,115,21.0,25.0,61,-99.99,,,-99.99,,2013-01-10 18:23:00,
2013-01-10 12:33:00,39.0,27.0,-100.00,ESE,115,21.0,25.0,61,-99.99,,,-99.99,,2013-01-10 18:33:00,
2013-01-10 12:43:00,39.0,27.0,-100.00,ESE,115,20.0,24.0,63,-99.99,,,-99.99,,2013-01-10 18:43:00,
2013-01-10 12:53:00,39.0,27.0,-100.00,ESE,115,20.0,24.0,63,-99.99,,,-99.99,,2013-01-10 18:53:00,
2013-01-10 13:13:00,39.0,28.0,-100.00,ESE,115,19.0,22.0,66,-99.99,,,-99.99,,2013-01-10 19:13:00,
2013-01-10 13:23:00,40.0,28.0,-100.00,ESE,110,18.0,23.0,64,-99.99,,,-99.99,,2013-01-10 19:23:00,
2013-01-10 13:33:00,40.0,28.0,-100.00,ESE,110,18.0,23.0,64,-99.99,,,-99.99,,2013-01-10 19:33:00,
2013-01-10 13:43:00,40.0,28.0,-100.00,ESE,120,21.0,25.0,62,-99.99,,,-99.99,,2013-01-10 19:43:00,
2013-01-10 13:53:00,41.0,29.0,-100.00,ESE,120,21.0,28.0,61,-99.99,,,-99.99,,2013-01-10 19:53:00,
2013-01-10 14:03:00,41.0,29.0,-100.00,ESE,120,21.0,28.0,61,-99.99,,,-99.99,,2013-01-10 20:03:00,
2013-01-10 14:13:00,41.0,29.0,-100.00,ESE,115,19.0,23.0,62,-99.99,,,-99.99,,2013-01-10 20:13:00,
2013-01-10 14:24:00,41.0,29.0,-100.00,ESE,120,20.0,25.0,61,-99.99,,,-99.99,,2013-01-10 20:24:00,
2013-01-10 14:33:00,41.0,29.0,-100.00,ESE,120,20.0,25.0,61,-99.99,,,-99.99,,2013-01-10 20:33:00,
2013-01-10 14:43:00,41.0,30.0,-100.00,ESE,120,20.0,24.0,64,-99.99,,,-99.99,,2013-01-10 20:43:00,
2013-01-10 14:53:00,40.0,32.0,-100.00,ESE,120,19.0,24.0,75,-99.99,,,-99.99,,2013-01-10 20:53:00,
2013-01-10 15:03:00,40.0,32.0,-100.00,ESE,120,19.0,24.0,75,-99.99,,,-99.99,,2013-01-10 21:03:00,
2013-01-10 15:12:00,39.0,35.0,-100.00,ESE,120,17.0,24.0,85,-99.99,,,-99.99,,2013-01-10 21:12:00,
2013-01-10 15:23:00,38.0,36.0,-100.00,ESE,120,19.0,24.0,92,-99.99,,,-99.99,,2013-01-10 21:23:00,
2013-01-10 15:33:00,38.0,37.0,-100.00,SE,125,16.0,24.0,95,-99.99,,,-99.99,,2013-01-10 21:33:00,
2013-01-10 15:42:00,38.0,37.0,-100.00,SE,125,16.0,24.0,95,-99.99,,,-99.99,,2013-01-10 21:42:00,
2013-01-10 15:53:00,38.0,37.0,-100.00,SE,130,16.0,21.0,97,-99.99,,,-99.99,,2013-01-10 21:53:00,
2013-01-10 16:03:00,38.0,37.0,-100.00,SE,130,16.0,21.0,97,-99.99,,,-99.99,,2013-01-10 22:03:00,
2013-01-10 16:12:00,38.0,37.0,-100.00,SE,125,18.0,26.0,98,-99.99,,,-99.99,,2013-01-10 22:12:00,
2013-01-10 16:26:00,38.0,38.0,-100.00,SE,130,15.0,24.0,99,-99.99,,,-99.99,,2013-01-10 22:26:00,
2013-01-10 16:33:00,38.0,38.0,-100.00,SE,130,15.0,24.0,99,-99.99,,,-99.99,,2013-01-10 22:33:00,
2013-01-10 16:43:00,38.0,38.0,-100.00,SE,130,19.0,26.0,99,-99.99,,,-99.99,,2013-01-10 22:43:00,
2013-01-10 17:03:00,38.0,37.0,-100.00,ESE,120,21.0,29.0,99,-99.99,,,-99.99,,2013-01-10 23:03:00,
2013-01-10 17:12:00,38.0,38.0,-100.00,SE,130,16.0,29.0,99,-99.99,,,-99.99,,2013-01-10 23:12:00,
2013-01-10 17:23:00,38.0,38.0,-100.00,SE,135,16.0,24.0,99,-99.99,,,-99.99,,2013-01-10 23:23:00,
2013-01-10 17:33:00,38.0,38.0,-100.00,SE,135,16.0,24.0,99,-99.99,,,-99.99,,2013-01-10 23:33:00,
2013-01-10 17:43:00,38.0,38.0,-100.00,SE,130,19.0,26.0,99,-99.99,,,-99.99,,2013-01-10 23:43:00,
2013-01-10 17:53:00,38.0,38.0,-100.00,SE,140,17.0,26.0,99,-99.99,,,-99.99,,2013-01-10 23:53:00,
2013-01-10 18:03:00,38.0,38.0,-100.00,SE,140,17.0,26.0,99,-99.99,,,-99.99,,2013-01-11 00:03:00,
2013-01-10 18:12:00,39.0,38.0,-100.00,SE,125,21.0,26.0,99,-99.99,,,-99.99,,2013-01-11 00:12:00,
2013-01-10 18:23:00,39.0,38.0,-100.00,SE,130,17.0,26.0,99,-99.99,,,-99.99,,2013-01-11 00:23:00,
2013-01-10 18:33:00,39.0,38.0,-100.00,SE,130,17.0,26.0,99,-99.99,,,-99.99,,2013-01-11 00:33:00,
2013-01-10 18:42:00,39.0,38.0,-100.00,SE,135,17.0,24.0,99,-99.99,,,-99.99,,2013-01-11 00:42:00,
2013-01-10 18:53:00,39.0,39.0,-100.00,SE,130,20.0,26.0,99,-99.99,,,-99.99,,2013-01-11 00:53:00,
2013-01-10 19:03:00,39.0,39.0,-100.00,SE,130,20.0,26.0,99,-99.99,,,-99.99,,2013-01-11 01:03:00,
2013-01-10 19:13:00,39.0,39.0,-100.00,SE,130,19.0,27.0,99,-99.99,,,-99.99,,2013-01-11 01:13:00,
2013-01-10 19:23:00,39.0,39.0,-100.00,ESE,120,19.0,23.0,99,-99.99,,,-99.99,,2013-01-11 01:23:00,
2013-01-10 19:33:00,39.0,39.0,-100.00,ESE,120,19.0,23.0,99,-99.99,,,-99.99,,2013-01-11 01:33:00,
2013-01-10 19:43:00,40.0,40.0,-100.00,SE,125,21.0,25.0,99,-99.99,,,-99.99,,2013-01-11 01:43:00,
2013-01-10 19:53:00,40.0,40.0,-100.00,ESE,120,18.0,24.0,99,-99.99,,,-99.99,,2013-01-11 01:53:00,
2013-01-10 20:03:00,40.0,40.0,-100.00,ESE,120,18.0,24.0,99,-99.99,,,-99.99,,2013-01-11 02:03:00,
2013-01-10 20:13:00,40.0,40.0,-100.00,ESE,120,18.0,22.0,99,-99.99,,,-99.99,,2013-01-11 02:13:00,
2013-01-10 20:23:00,40.0,40.0,-100.00,SE,130,15.0,21.0,99,-99.99,,,-99.99,,2013-01-11 02:23:00,
2013-01-10 20:33:00,40.0,40.0,-100.00,SE,130,15.0,21.0,99,-99.99,,,-99.99,,2013-01-11 02:33:00,
2013-01-10 20:43:00,41.0,40.0,-100.00,SSE,150,11.0,18.0,99,-99.99,,,-99.99,,2013-01-11 02:43:00,
2013-01-10 20:54:00,40.0,40.0,-100.00,SE,130,14.0,19.0,99,-99.99,,,-99.99,,2013-01-11 02:54:00,
2013-01-10 21:02:00,40.0,40.0,-100.00,SE,130,14.0,19.0,99,-99.99,,,-99.99,,2013-01-11 03:02:00,
2013-01-10 21:12:00,40.0,40.0,-100.00,SE,130,14.0,19.0,99,-99.99,,,-99.99,,2013-01-11 03:12:00,
2013-01-10 21:23:00,41.0,40.0,-100.00,SSE,165,8.0,14.0,99,-99.99,,,-99.99,,2013-01-11 03:23:00,
2013-01-10 21:33:00,40.0,40.0,-100.00,SE,145,7.0,11.0,99,-99.99,,,-99.99,,2013-01-11 03:33:00,
2013-01-10 21:43:00,40.0,40.0,-100.00,SE,145,7.0,11.0,99,-99.99,,,-99.99,,2013-01-11 03:43:00,
2013-01-10 21:53:00,40.0,40.0,-100.00,SE,125,6.0,8.0,99,-99.99,,,-99.99,,2013-01-11 03:53:00,
2013-01-10 22:02:00,40.0,40.0,-100.00,SE,125,6.0,8.0,99,-99.99,,,-99.99,,2013-01-11 04:02:00,
2013-01-10 22:12:00,40.0,40.0,-100.00,SE,125,7.0,9.0,99,-99.99,,,-99.99,,2013-01-11 04:12:00,
2013-01-10 22:22:00,40.0,39.0,-100.00,ESE,120,7.0,10.0,99,-99.99,,,-99.99,,2013-01-11 04:22:00,
2013-01-10 22:33:00,40.0,39.0,-100.00,ESE,120,7.0,10.0,99,-99.99,,,-99.99,,2013-01-11 04:33:00,
2013-01-10 22:42:00,39.0,39.0,-100.00,SE,125,7.0,9.0,99,-99.99,,,-99.99,,2013-01-11 04:42:00,
2013-01-10 22:53:00,39.0,39.0,-100.00,ESE,115,7.0,8.0,99,-99.99,,,-99.99,,2013-01-11 04:53:00,
2013-01-10 23:03:00,39.0,39.0,-100.00,ESE,115,7.0,8.0,99,-99.99,,,-99.99,,2013-01-11 05:03:00,
2013-01-10 23:13:00,39.0,39.0,-100.00,ESE,110,9.0,11.0,99,-99.99,,,-99.99,,2013-01-11 05:13:00,
2013-01-10 23:22:00,39.0,39.0,-100.00,ESE,110,11.0,11.0,99,-99.99,,,-99.99,,2013-01-11 05:22:00,
2013-01-10 23:33:00,40.0,39.0,-100.00,ESE,115,11.0,14.0,99,-99.99,,,-99.99,,2013-01-11 05:33:00,
2013-01-10 23:43:00,40.0,39.0,-100.00,ESE,115,11.0,14.0,99,-99.99,,,-99.99,,2013-01-11 05:43:00,
2013-01-10 23:53:00,40.0,40.0,-100.00,ESE,120,7.0,10.0,99,-99.99,,,-99.99,,2013-01-11 05:53:00,